createdAt,value
2019-01-20T00:01:25.101Z,2.50
2019-01-20T00:03:57.073Z,2.17
2019-01-20T00:06:30.315Z,1.98
2019-01-20T00:09:02.373Z,2.25
2019-01-20T00:11:39.388Z,2.42
2019-01-20T00:14:12.978Z,2.60
2019-01-20T00:16:46.616Z,2.60
2019-01-20T00:19:18.671Z,2.58
2019-01-20T00:21:51.476Z,2.62
2019-01-20T00:24:25.281Z,2.60
2019-01-20T00:26:57.252Z,2.25
2019-01-20T00:29:53.187Z,2.45
2019-01-20T00:32:31.446Z,6.72
2019-01-20T00:35:03.425Z,3.80
2019-01-20T00:37:35.464Z,3.22
2019-01-20T00:40:09.911Z,7.42
2019-01-20T00:42:42.400Z,4.10
2019-01-20T00:45:16.052Z,3.30
2019-01-20T00:47:48.114Z,13.05
2019-01-20T00:50:20.407Z,3.90
2019-01-20T00:52:52.388Z,2.60
2019-01-20T00:55:24.392Z,13.38
2019-01-20T00:57:56.376Z,16.23
2019-01-20T01:00:30.816Z,14.05
2019-01-20T01:03:03.293Z,16.67
2019-01-20T01:05:35.631Z,15.85
2019-01-20T01:08:08.678Z,3.12
2019-01-20T01:10:44.907Z,6.28
2019-01-20T01:13:18.584Z,5.83
2019-01-20T01:15:53.771Z,43.45
2019-01-20T01:18:25.791Z,8.95
2019-01-20T01:20:57.688Z,35.50
2019-01-20T01:23:31.292Z,19.52
2019-01-20T01:26:03.289Z,17.85
2019-01-20T01:28:35.305Z,11.33
2019-01-20T01:31:07.235Z,12.50
2019-01-20T01:33:41.746Z,8.33
2019-01-20T01:36:13.669Z,16.27
2019-01-20T01:38:45.604Z,7.55
2019-01-20T01:41:17.555Z,13.95
2019-01-20T01:43:49.504Z,4.53
2019-01-20T01:46:23.251Z,3.02
2019-01-20T01:48:55.210Z,3.15
2019-01-20T01:51:27.278Z,5.75
2019-01-20T01:54:02.879Z,3.40
2019-01-20T01:56:36.256Z,2.58
2019-01-20T01:59:08.133Z,2.77
2019-01-20T02:01:40.058Z,2.37
2019-01-20T02:04:12.038Z,2.42
2019-01-20T02:06:44.040Z,2.52
2019-01-20T02:09:18.664Z,2.75
2019-01-20T02:11:52.183Z,2.35
2019-01-20T02:14:24.110Z,11.40
2019-01-20T02:16:55.999Z,5.53
2019-01-20T02:19:27.970Z,5.55
2019-01-20T02:22:00.445Z,3.83
2019-01-20T02:24:32.457Z,13.40
2019-01-20T02:27:04.676Z,19.42
2019-01-20T02:29:36.646Z,10.45
2019-01-20T02:32:08.600Z,4.50
2019-01-20T02:34:40.625Z,7.40
2019-01-20T02:37:12.548Z,5.25
2019-01-20T02:39:44.446Z,10.15
2019-01-20T02:42:16.358Z,7.72
2019-01-20T02:44:48.286Z,5.72
2019-01-20T02:47:20.188Z,19.52
2019-01-20T02:49:52.238Z,9.15
2019-01-20T02:52:24.140Z,6.95
2019-01-20T02:54:56.063Z,2.70
2019-01-20T02:57:28.319Z,1.40
2019-01-20T03:00:07.776Z,1.57
2019-01-20T03:02:39.872Z,7.65
2019-01-20T03:05:12.300Z,1.57
2019-01-20T03:07:44.187Z,2.02
2019-01-20T03:10:16.529Z,15.80
2019-01-20T03:12:48.697Z,7.90
2019-01-20T03:15:20.586Z,15.72
2019-01-20T03:17:52.558Z,5.85
2019-01-20T03:20:24.599Z,11.75
2019-01-20T03:22:56.606Z,9.28
2019-01-20T03:25:28.512Z,5.05
2019-01-20T03:28:00.413Z,3.47
2019-01-20T03:30:32.356Z,3.27
2019-01-20T03:33:06.169Z,3.90
2019-01-20T03:35:41.209Z,2.80
2019-01-20T03:38:14.321Z,3.35
2019-01-20T03:40:47.607Z,4.33
2019-01-20T03:43:19.539Z,2.20
2019-01-20T03:45:52.421Z,1.77
2019-01-20T03:48:24.366Z,2.63
2019-01-20T03:50:56.657Z,1.90
2019-01-20T03:53:31.140Z,5.47
2019-01-20T03:56:04.216Z,6.08
2019-01-20T03:58:36.640Z,5.10
2019-01-20T04:01:08.867Z,6.85
2019-01-20T04:03:40.763Z,3.10
2019-01-20T04:06:12.717Z,10.45
2019-01-20T04:08:44.607Z,4.00
2019-01-20T04:11:16.552Z,3.02
2019-01-20T04:13:48.516Z,2.50
2019-01-20T04:16:23.241Z,4.75
2019-01-20T04:18:55.159Z,2.70
2019-01-20T04:21:27.485Z,2.92
2019-01-20T04:24:00.484Z,2.30
2019-01-20T04:26:32.430Z,4.13
2019-01-20T04:29:04.653Z,3.25
2019-01-20T04:31:36.580Z,1.52
2019-01-20T04:34:08.610Z,2.05
2019-01-20T04:36:40.559Z,2.22
2019-01-20T04:39:12.496Z,4.95
2019-01-20T04:41:44.448Z,4.83
2019-01-20T04:44:16.383Z,2.20
2019-01-20T04:46:48.360Z,1.98
2019-01-20T04:49:20.458Z,1.90
2019-01-20T04:51:52.394Z,2.27
2019-01-20T04:54:24.414Z,2.20
2019-01-20T04:56:56.296Z,2.00
2019-01-20T04:59:28.259Z,2.27
2019-01-20T05:02:00.174Z,2.47
2019-01-20T05:04:32.252Z,3.45
2019-01-20T05:07:04.268Z,2.67
2019-01-20T05:09:38.133Z,2.87
2019-01-20T05:12:10.226Z,4.70
2019-01-20T05:14:42.146Z,3.70
2019-01-20T05:17:17.243Z,3.37
2019-01-20T05:19:49.289Z,2.75
2019-01-20T05:22:21.209Z,2.70
2019-01-20T05:24:53.203Z,2.43
2019-01-20T05:27:25.280Z,2.77
2019-01-20T05:29:57.268Z,3.03
2019-01-20T05:32:29.206Z,3.17
2019-01-20T05:35:07.032Z,2.50
2019-01-20T05:37:42.217Z,3.30
2019-01-20T05:40:17.218Z,2.90
2019-01-20T05:42:49.034Z,2.50
2019-01-20T05:45:23.038Z,2.80
2019-01-20T05:47:55.413Z,2.60
2019-01-20T05:50:27.344Z,1.63
2019-01-20T05:52:59.660Z,1.93
2019-01-20T05:55:31.850Z,2.15
2019-01-20T05:58:03.793Z,1.80
2019-01-20T06:00:36.653Z,1.40
2019-01-20T06:03:08.676Z,2.00
2019-01-20T06:05:41.663Z,2.22
2019-01-20T06:08:15.230Z,2.17
2019-01-20T06:10:47.169Z,1.80
2019-01-20T06:13:19.203Z,2.53
2019-01-20T06:15:51.169Z,1.80
2019-01-20T06:18:23.128Z,2.20
2019-01-20T06:20:55.058Z,2.00
2019-01-20T06:23:28.003Z,1.90
2019-01-20T06:26:00.007Z,1.90
2019-01-20T06:28:31.927Z,1.67
2019-01-20T06:31:03.967Z,2.20
2019-01-20T06:33:35.854Z,1.60
2019-01-20T06:36:07.870Z,1.70
2019-01-20T06:38:39.808Z,1.70
2019-01-20T06:41:11.793Z,1.93
2019-01-20T06:43:43.782Z,1.40
2019-01-20T06:46:15.661Z,1.63
2019-01-20T06:48:47.607Z,1.80
2019-01-20T06:51:19.530Z,1.53
2019-01-20T06:53:51.950Z,1.70
2019-01-20T06:56:23.900Z,1.63
2019-01-20T06:58:55.791Z,1.43
2019-01-20T07:01:29.252Z,1.53
2019-01-20T07:04:01.180Z,1.60
2019-01-20T07:06:33.075Z,1.77
2019-01-20T07:09:07.212Z,1.53
2019-01-20T07:11:39.190Z,2.30
2019-01-20T07:14:11.128Z,2.47
2019-01-20T07:16:43.137Z,2.47
2019-01-20T07:19:17.332Z,2.20
2019-01-20T07:21:49.218Z,2.27
2019-01-20T07:24:21.186Z,1.97
2019-01-20T07:26:53.100Z,2.20
2019-01-20T07:29:25.466Z,2.03
2019-01-20T07:31:57.433Z,2.17
2019-01-20T07:34:29.750Z,2.23
2019-01-20T07:37:01.657Z,2.70
2019-01-20T07:39:33.767Z,3.30
2019-01-20T07:42:05.794Z,3.30
2019-01-20T07:44:37.703Z,3.93
2019-01-20T07:47:09.694Z,3.27
2019-01-20T07:49:42.147Z,3.17
2019-01-20T07:52:14.099Z,3.77
2019-01-20T07:54:47.779Z,3.30
2019-01-20T07:57:19.760Z,3.17
2019-01-20T07:59:51.651Z,3.37
2019-01-20T08:02:23.583Z,4.23
2019-01-20T08:04:55.514Z,3.87
2019-01-20T08:07:27.411Z,4.03
2019-01-20T08:09:59.409Z,4.50
2019-01-20T08:12:33.548Z,3.87
2019-01-20T08:15:07.289Z,4.60
2019-01-20T08:17:39.200Z,4.43
2019-01-20T08:20:16.113Z,4.03
2019-01-20T08:22:48.048Z,4.50
2019-01-20T08:25:20.824Z,4.27
2019-01-20T08:27:53.030Z,3.80
2019-01-20T08:30:26.958Z,4.10
2019-01-20T08:32:58.872Z,3.97
2019-01-20T08:35:30.824Z,4.30
2019-01-20T08:38:02.849Z,4.20
2019-01-20T08:40:54.589Z,4.80
2019-01-20T08:43:31.758Z,3.50
2019-01-20T08:46:24.731Z,3.77
2019-01-20T08:48:56.619Z,3.80
2019-01-20T08:51:28.632Z,3.23
2019-01-20T08:54:00.523Z,3.30
2019-01-20T08:56:32.514Z,3.40
2019-01-20T08:59:04.633Z,3.40
2019-01-20T09:01:36.566Z,3.37
2019-01-20T09:04:08.475Z,3.97
2019-01-20T09:06:40.519Z,3.63
2019-01-20T09:09:12.458Z,3.20
2019-01-20T09:11:44.406Z,3.60
2019-01-20T09:14:16.315Z,4.30
2019-01-20T09:16:48.264Z,3.60
2019-01-20T09:19:20.255Z,4.33
2019-01-20T09:21:52.242Z,3.63
2019-01-20T09:24:24.335Z,3.73
2019-01-20T09:26:58.312Z,3.70
2019-01-20T09:29:30.323Z,4.17
2019-01-20T09:32:03.269Z,4.45
2019-01-20T09:34:35.217Z,3.33
2019-01-20T09:37:07.165Z,3.52
2019-01-20T09:39:39.205Z,3.60
2019-01-20T09:42:12.846Z,3.05
2019-01-20T09:44:44.882Z,3.70
2019-01-20T09:47:16.941Z,5.08
2019-01-20T09:49:50.549Z,4.67
2019-01-20T09:52:22.514Z,6.70
2019-01-20T09:54:54.417Z,5.00
2019-01-20T09:57:27.076Z,5.53
2019-01-20T09:59:59.042Z,8.98
2019-01-20T10:02:31.097Z,8.58
2019-01-20T10:05:03.135Z,9.33
2019-01-20T10:07:36.197Z,8.70
2019-01-20T10:10:10.119Z,11.57
2019-01-20T10:12:42.491Z,13.13
2019-01-20T10:15:16.332Z,11.57
2019-01-20T10:17:48.369Z,9.53
2019-01-20T10:20:23.175Z,8.50
2019-01-20T10:22:55.143Z,7.22
2019-01-20T10:25:29.032Z,5.58
2019-01-20T10:28:01.026Z,5.42
2019-01-20T10:30:34.807Z,4.17
2019-01-20T10:33:07.155Z,3.85
2019-01-20T10:35:41.806Z,3.37
2019-01-20T10:38:14.561Z,4.20
2019-01-20T10:40:46.518Z,7.50
2019-01-20T10:43:20.488Z,4.20
2019-01-20T10:45:52.710Z,5.37
2019-01-20T10:48:24.609Z,4.53
2019-01-20T10:50:56.548Z,3.98
2019-01-20T10:53:28.613Z,3.77
2019-01-20T10:56:00.590Z,4.28
2019-01-20T10:58:33.885Z,3.30
2019-01-20T11:01:10.559Z,2.52
2019-01-20T11:03:42.602Z,3.37
2019-01-20T11:06:14.710Z,2.77
2019-01-20T11:08:46.946Z,2.55
2019-01-20T11:11:18.962Z,2.12
2019-01-20T11:13:50.878Z,2.70
2019-01-20T11:16:24.474Z,2.50
2019-01-20T11:18:58.052Z,1.90
2019-01-20T11:21:30.022Z,2.60
2019-01-20T11:24:02.007Z,4.97
2019-01-20T11:26:34.120Z,2.80
2019-01-20T11:29:06.181Z,1.65
2019-01-20T11:31:38.249Z,2.77
2019-01-20T11:34:10.145Z,2.27
2019-01-20T11:36:43.747Z,2.17
2019-01-20T11:39:15.659Z,1.80
2019-01-20T11:41:47.645Z,2.02
2019-01-20T11:44:19.609Z,1.90
2019-01-20T11:46:51.714Z,1.90
2019-01-20T11:49:23.662Z,2.10
2019-01-20T11:51:55.801Z,3.02
2019-01-20T11:54:27.810Z,2.60
2019-01-20T11:56:59.768Z,1.90
2019-01-20T11:59:31.830Z,1.80
2019-01-20T12:02:03.845Z,2.80
2019-01-20T12:04:35.776Z,2.02
2019-01-20T12:07:08.120Z,1.82
2019-01-20T12:09:40.166Z,1.70
2019-01-20T12:12:12.251Z,2.30
2019-01-20T12:14:44.360Z,3.70
2019-01-20T12:17:16.345Z,1.98
2019-01-20T12:19:48.362Z,2.02
2019-01-20T12:22:20.347Z,1.85
2019-01-20T12:24:52.340Z,2.00
2019-01-20T12:27:23.064Z,2.20
2019-01-20T12:29:54.668Z,2.52
2019-01-20T12:32:26.629Z,1.98
2019-01-20T12:34:58.528Z,1.62
2019-01-20T12:37:30.483Z,2.35
2019-01-20T12:40:02.447Z,2.37
2019-01-20T12:42:37.437Z,1.90
2019-01-20T12:45:10.179Z,2.20
2019-01-20T12:47:42.203Z,1.72
2019-01-20T12:50:15.570Z,1.80
2019-01-20T12:52:47.505Z,2.60
2019-01-20T12:55:19.411Z,3.35
2019-01-20T12:57:51.737Z,1.80
2019-01-20T13:00:23.727Z,1.60
2019-01-20T13:02:55.623Z,5.20
2019-01-20T13:05:27.624Z,3.47
2019-01-20T13:07:59.601Z,1.85
2019-01-20T13:10:31.644Z,2.10
2019-01-20T13:13:05.828Z,2.80
2019-01-20T13:15:40.287Z,2.17
2019-01-20T13:18:17.161Z,2.67
2019-01-20T13:20:52.222Z,2.77
2019-01-20T13:23:25.989Z,2.12
2019-01-20T13:25:58.005Z,2.25
2019-01-20T13:28:29.917Z,3.95
2019-01-20T13:31:01.899Z,2.30
2019-01-20T13:33:37.889Z,2.80
2019-01-20T13:36:10.037Z,3.05
2019-01-20T13:38:41.941Z,2.75
2019-01-20T13:41:29.234Z,2.40
2019-01-20T13:44:01.256Z,1.70
2019-01-20T13:46:33.798Z,2.00
2019-01-20T13:49:05.939Z,3.72
2019-01-20T13:51:37.941Z,1.98
2019-01-20T13:54:10.056Z,2.10
2019-01-20T13:56:42.080Z,2.00
2019-01-20T13:59:14.453Z,2.00
2019-01-20T14:01:48.103Z,3.47
2019-01-20T14:04:20.277Z,3.87
2019-01-20T14:06:52.181Z,2.00
2019-01-20T14:09:25.224Z,2.77
2019-01-20T14:11:57.177Z,2.00
2019-01-20T14:14:29.138Z,2.12
2019-01-20T14:17:01.120Z,7.25
2019-01-20T14:19:33.070Z,9.00
2019-01-20T14:22:05.166Z,5.00
2019-01-20T14:24:37.164Z,4.17
2019-01-20T14:27:09.099Z,4.08
2019-01-20T14:29:43.472Z,3.58
2019-01-20T14:32:15.408Z,2.40
2019-01-20T14:34:47.372Z,4.53
2019-01-20T14:37:23.310Z,4.37
2019-01-20T14:39:56.380Z,3.12
2019-01-20T14:42:28.273Z,2.60
2019-01-20T14:45:01.227Z,1.67
2019-01-20T14:47:33.716Z,3.05
2019-01-20T14:50:07.083Z,2.05
2019-01-20T14:52:39.068Z,2.75
2019-01-20T14:55:11.458Z,2.92
2019-01-20T14:57:43.353Z,2.15
2019-01-20T15:00:21.225Z,3.40
2019-01-20T15:02:53.114Z,2.30
2019-01-20T15:05:25.259Z,2.80
2019-01-20T15:07:57.401Z,3.33
2019-01-20T15:10:29.320Z,3.75
2019-01-20T15:13:01.368Z,4.33
2019-01-20T15:15:36.526Z,1.95
2019-01-20T15:18:10.727Z,3.30
2019-01-20T15:20:44.447Z,2.10
2019-01-20T15:23:16.748Z,3.33
2019-01-20T15:25:48.677Z,4.90
2019-01-20T15:28:21.130Z,4.90
2019-01-20T15:30:53.122Z,5.20
2019-01-20T15:33:25.193Z,2.25
2019-01-20T15:35:57.589Z,2.05
2019-01-20T15:38:29.966Z,4.00
2019-01-20T15:41:04.049Z,5.40
2019-01-20T15:43:35.983Z,3.85
2019-01-20T15:46:07.885Z,2.47
2019-01-20T15:48:39.966Z,2.35
2019-01-20T15:51:11.902Z,2.70
2019-01-20T15:53:43.815Z,3.77
2019-01-20T15:56:16.055Z,3.02
2019-01-20T15:58:47.960Z,4.80
2019-01-20T16:01:19.947Z,4.03
2019-01-20T16:03:51.860Z,4.20
2019-01-20T16:06:23.802Z,2.87
2019-01-20T16:08:55.698Z,3.45
2019-01-20T16:11:31.348Z,2.52
2019-01-20T16:14:01.331Z,4.90
2019-01-20T16:16:35.169Z,3.27
2019-01-20T16:19:07.082Z,3.02
2019-01-20T16:21:39.056Z,3.60
2019-01-20T16:24:11.012Z,3.85
2019-01-20T16:26:43.786Z,5.80
2019-01-20T16:29:15.730Z,4.53
2019-01-20T16:31:47.659Z,5.08
2019-01-20T16:34:19.655Z,2.67
2019-01-20T16:36:51.647Z,3.87
2019-01-20T16:39:23.556Z,1.95
2019-01-20T16:41:56.018Z,2.20
2019-01-20T16:44:27.926Z,2.20
2019-01-20T16:46:59.870Z,2.42
2019-01-20T16:49:31.929Z,3.62
2019-01-20T16:52:03.828Z,3.10
2019-01-20T16:54:35.789Z,3.45
2019-01-20T16:57:10.288Z,2.70
2019-01-20T16:59:43.812Z,3.05
2019-01-20T17:02:15.818Z,3.60
2019-01-20T17:04:48.118Z,3.42
2019-01-20T17:07:20.090Z,3.17
2019-01-20T17:09:52.062Z,2.98
2019-01-20T17:12:23.978Z,2.87
2019-01-20T17:14:55.974Z,2.80
2019-01-20T17:17:27.956Z,2.98
2019-01-20T17:20:02.762Z,2.47
2019-01-20T17:22:34.715Z,5.60
2019-01-20T17:25:07.980Z,7.30
2019-01-20T17:27:39.986Z,5.95
2019-01-20T17:30:15.933Z,3.80
2019-01-20T17:32:47.960Z,4.28
2019-01-20T17:35:20.299Z,3.37
2019-01-20T17:37:52.333Z,3.15
2019-01-20T17:40:27.225Z,5.50
2019-01-20T17:42:59.368Z,4.33
2019-01-20T17:45:33.817Z,6.17
2019-01-20T17:48:05.939Z,3.83
2019-01-20T17:50:40.132Z,4.42
2019-01-20T17:53:12.908Z,4.55
2019-01-20T17:55:44.860Z,4.42
2019-01-20T17:58:18.344Z,5.28
2019-01-20T18:01:01.467Z,4.80
2019-01-20T18:03:34.068Z,9.83
2019-01-20T18:06:06.417Z,7.83
2019-01-20T18:08:38.404Z,6.05
2019-01-20T18:11:10.444Z,6.00
2019-01-20T18:13:42.839Z,6.00
2019-01-20T18:16:14.883Z,6.10
2019-01-20T18:18:46.814Z,5.53
2019-01-20T18:21:18.832Z,5.85
2019-01-20T18:23:51.919Z,6.40
2019-01-20T18:26:23.983Z,5.80
2019-01-20T18:28:56.054Z,6.65
2019-01-20T18:31:29.052Z,7.20
2019-01-20T18:34:03.304Z,7.28
2019-01-20T18:36:35.361Z,6.50
2019-01-20T18:39:09.769Z,6.17
2019-01-20T18:41:44.200Z,4.08
2019-01-20T18:44:16.508Z,4.92
2019-01-20T18:46:48.969Z,8.53
2019-01-20T18:49:23.732Z,10.40
2019-01-20T18:51:55.668Z,13.43
2019-01-20T18:54:27.656Z,11.73
2019-01-20T18:56:59.688Z,7.15
2019-01-20T18:59:31.651Z,5.50
2019-01-20T19:02:03.611Z,5.62
2019-01-20T19:04:36.066Z,7.70
2019-01-20T19:07:08.585Z,8.30
2019-01-20T19:09:40.604Z,7.28
2019-01-20T19:12:14.151Z,6.53
2019-01-20T19:14:46.092Z,6.53
2019-01-20T19:17:18.356Z,8.10
2019-01-20T19:19:50.317Z,9.70
2019-01-20T19:22:22.243Z,11.00
2019-01-20T19:24:54.217Z,11.63
2019-01-20T19:27:26.182Z,14.10
2019-01-20T19:29:58.521Z,13.70
2019-01-20T19:32:30.487Z,12.98
2019-01-20T19:35:02.535Z,8.75
2019-01-20T19:37:34.490Z,11.33
2019-01-20T19:40:07.702Z,14.23
2019-01-20T19:42:41.925Z,17.40
2019-01-20T19:45:15.935Z,13.08
2019-01-20T19:47:50.283Z,11.85
2019-01-20T19:50:33.541Z,11.70
2019-01-20T19:53:26.386Z,11.78
2019-01-20T19:56:00.553Z,25.23
2019-01-20T19:58:40.616Z,22.40
2019-01-20T20:01:18.353Z,15.65
2019-01-20T20:03:52.113Z,16.17
2019-01-20T20:06:51.786Z,18.02
2019-01-20T20:09:43.476Z,19.85
2019-01-20T20:12:25.367Z,27.80
2019-01-20T20:15:02.335Z,27.20
2019-01-20T20:17:43.450Z,17.82
2019-01-20T20:20:24.604Z,17.65
2019-01-20T20:23:05.943Z,15.03
2019-01-20T20:25:52.337Z,14.60
2019-01-20T20:28:30.091Z,23.77
2019-01-20T20:31:11.094Z,19.98
2019-01-20T20:33:57.042Z,18.35
2019-01-20T20:36:37.279Z,20.67
2019-01-20T20:39:17.772Z,21.87
2019-01-20T20:41:52.014Z,21.23
2019-01-20T20:44:37.634Z,22.93
2019-01-20T20:47:10.979Z,24.37
2019-01-20T20:49:43.078Z,25.72
2019-01-20T20:52:17.538Z,28.03
2019-01-20T20:54:52.495Z,30.68
2019-01-20T20:57:24.765Z,30.12
2019-01-20T20:59:59.502Z,27.83
2019-01-20T21:02:31.739Z,32.17
2019-01-20T21:05:03.902Z,31.63
2019-01-20T21:07:36.154Z,31.12
2019-01-20T21:10:11.369Z,30.12
2019-01-20T21:12:43.610Z,30.60
2019-01-20T21:15:16.468Z,32.78
2019-01-20T21:17:48.969Z,30.77
2019-01-20T21:20:27.676Z,19.65
2019-01-20T21:22:59.993Z,21.82
2019-01-20T21:25:32.344Z,24.13
2019-01-20T21:28:07.633Z,23.42
2019-01-20T21:30:39.985Z,25.45
2019-01-20T21:33:12.537Z,26.82
2019-01-20T21:35:44.795Z,24.77
2019-01-20T21:38:16.909Z,30.95
2019-01-20T21:40:49.047Z,25.00
2019-01-20T21:43:35.544Z,28.97
2019-01-20T21:46:07.740Z,30.62
2019-01-20T21:48:39.897Z,29.85
2019-01-20T21:51:12.894Z,27.07
2019-01-20T21:53:45.532Z,26.07
2019-01-20T21:56:17.539Z,24.90
2019-01-20T21:58:49.483Z,28.60
2019-01-20T22:01:44.899Z,27.67
2019-01-20T22:04:17.291Z,28.73
2019-01-20T22:06:49.415Z,29.77
2019-01-20T22:09:21.520Z,24.73
2019-01-20T22:11:53.508Z,22.27
2019-01-20T22:14:25.828Z,22.13
2019-01-20T22:16:59.388Z,20.10
2019-01-20T22:19:33.077Z,22.80
2019-01-20T22:22:06.814Z,26.47
2019-01-20T22:24:44.273Z,23.77
2019-01-20T22:27:20.139Z,27.33
2019-01-20T22:29:52.503Z,37.00
2019-01-20T22:32:24.460Z,35.50
2019-01-20T22:34:56.453Z,32.13
2019-01-20T22:37:28.493Z,31.03
2019-01-20T22:40:01.869Z,27.00
2019-01-20T22:42:34.423Z,30.03
2019-01-20T22:45:08.524Z,23.90
2019-01-20T22:47:40.704Z,23.37
2019-01-20T22:50:13.745Z,23.83
2019-01-20T22:52:45.709Z,23.73
2019-01-20T22:55:17.857Z,25.33
2019-01-20T22:57:54.153Z,24.57
2019-01-20T23:00:51.132Z,25.23
2019-01-20T23:03:23.159Z,26.97
2019-01-20T23:05:56.340Z,24.17
2019-01-20T23:08:28.360Z,23.20
2019-01-20T23:11:03.480Z,32.23
2019-01-20T23:13:35.374Z,29.63
2019-01-20T23:16:09.094Z,26.87
2019-01-20T23:18:42.010Z,25.57
2019-01-20T23:21:14.025Z,24.53
2019-01-20T23:23:45.954Z,23.63
2019-01-20T23:26:18.375Z,25.60
2019-01-20T23:28:51.663Z,26.67
2019-01-20T23:31:23.731Z,23.43
2019-01-20T23:33:56.032Z,21.83
2019-01-20T23:36:27.927Z,22.07
2019-01-20T23:39:00.233Z,24.23
2019-01-20T23:41:32.339Z,25.57
2019-01-20T23:44:04.841Z,27.93
2019-01-20T23:46:36.797Z,24.03
2019-01-20T23:49:08.759Z,26.03
2019-01-20T23:51:40.684Z,25.80
2019-01-20T23:54:13.496Z,35.40
2019-01-20T23:56:46.542Z,28.03
2019-01-20T23:59:18.436Z,28.47
